sensor_id;sensor_type;location;lat;lon;timestamp;temperature;humidity
9151;DHT22;4610;50.006;7.490;2022-12-07T00:01:22;2.50;99.90
9151;DHT22;4610;50.006;7.490;2022-12-07T00:03:51;2.50;99.90
9151;DHT22;4610;50.006;7.490;2022-12-07T00:06:19;2.50;99.90
9151;DHT22;4610;50.006;7.490;2022-12-07T00:08:48;2.60;99.90
9151;DHT22;4610;50.006;7.490;2022-12-07T00:11:17;2.50;99.90
9151;DHT22;4610;50.006;7.490;2022-12-07T00:13:44;2.50;99.90
9151;DHT22;4610;50.006;7.490;2022-12-07T00:16:13;2.40;99.90
9151;DHT22;4610;50.006;7.490;2022-12-07T00:18:40;2.40;99.90
9151;DHT22;4610;50.006;7.490;2022-12-07T00:21:10;2.30;99.90
9151;DHT22;4610;50.006;7.490;2022-12-07T00:23:37;2.40;99.90
9151;DHT22;4610;50.006;7.490;2022-12-07T00:26:08;2.40;99.90
9151;DHT22;4610;50.006;7.490;2022-12-07T00:28:35;2.40;99.90
9151;DHT22;4610;50.006;7.490;2022-12-07T00:31:03;2.40;99.90
9151;DHT22;4610;50.006;7.490;2022-12-07T00:33:31;2.40;99.90
9151;DHT22;4610;50.006;7.490;2022-12-07T00:35:59;2.40;99.90
9151;DHT22;4610;50.006;7.490;2022-12-07T00:38:28;2.40;99.90
9151;DHT22;4610;50.006;7.490;2022-12-07T00:40:59;2.40;99.90
9151;DHT22;4610;50.006;7.490;2022-12-07T00:43:28;2.40;99.90
9151;DHT22;4610;50.006;7.490;2022-12-07T00:45:55;2.40;99.90
9151;DHT22;4610;50.006;7.490;2022-12-07T00:48:22;2.30;99.90
9151;DHT22;4610;50.006;7.490;2022-12-07T00:50:50;2.30;99.90
9151;DHT22;4610;50.006;7.490;2022-12-07T00:53:17;2.20;99.90
9151;DHT22;4610;50.006;7.490;2022-12-07T00:55:44;2.30;99.90
9151;DHT22;4610;50.006;7.490;2022-12-07T00:58:11;2.40;99.90
9151;DHT22;4610;50.006;7.490;2022-12-07T01:00:41;2.50;99.90
9151;DHT22;4610;50.006;7.490;2022-12-07T01:03:09;2.50;99.90
9151;DHT22;4610;50.006;7.490;2022-12-07T01:05:36;2.50;99.90
9151;DHT22;4610;50.006;7.490;2022-12-07T01:08:04;2.60;99.90
9151;DHT22;4610;50.006;7.490;2022-12-07T01:10:31;2.60;99.90
9151;DHT22;4610;50.006;7.490;2022-12-07T01:12:58;2.60;99.90
9151;DHT22;4610;50.006;7.490;2022-12-07T01:15:26;2.60;99.90
9151;DHT22;4610;50.006;7.490;2022-12-07T01:17:54;2.50;99.90
9151;DHT22;4610;50.006;7.490;2022-12-07T01:20:21;2.40;99.90
9151;DHT22;4610;50.006;7.490;2022-12-07T01:22:48;2.40;99.90
9151;DHT22;4610;50.006;7.490;2022-12-07T01:25:15;2.40;99.90
9151;DHT22;4610;50.006;7.490;2022-12-07T01:27:42;2.50;99.90
9151;DHT22;4610;50.006;7.490;2022-12-07T01:30:10;2.60;99.90
9151;DHT22;4610;50.006;7.490;2022-12-07T01:32:37;2.60;99.90
9151;DHT22;4610;50.006;7.490;2022-12-07T01:35:06;2.70;99.90
9151;DHT22;4610;50.006;7.490;2022-12-07T01:37:35;2.70;99.90
9151;DHT22;4610;50.006;7.490;2022-12-07T01:40:03;2.70;99.90
9151;DHT22;4610;50.006;7.490;2022-12-07T01:42:29;2.70;99.90
9151;DHT22;4610;50.006;7.490;2022-12-07T01:45:37;2.60;99.90
9151;DHT22;4610;50.006;7.490;2022-12-07T01:48:05;2.60;99.90
9151;DHT22;4610;50.006;7.490;2022-12-07T01:50:35;2.50;99.90
9151;DHT22;4610;50.006;7.490;2022-12-07T01:53:04;2.50;99.90
9151;DHT22;4610;50.006;7.490;2022-12-07T01:55:32;2.50;99.90
9151;DHT22;4610;50.006;7.490;2022-12-07T01:58:00;2.50;99.90
9151;DHT22;4610;50.006;7.490;2022-12-07T02:00:27;2.50;99.90
9151;DHT22;4610;50.006;7.490;2022-12-07T02:02:57;2.60;99.90
9151;DHT22;4610;50.006;7.490;2022-12-07T02:05:26;2.60;99.90
9151;DHT22;4610;50.006;7.490;2022-12-07T02:07:56;2.70;99.90
9151;DHT22;4610;50.006;7.490;2022-12-07T02:10:25;2.70;99.90
9151;DHT22;4610;50.006;7.490;2022-12-07T02:12:56;2.70;99.90
9151;DHT22;4610;50.006;7.490;2022-12-07T02:15:29;2.80;99.90
9151;DHT22;4610;50.006;7.490;2022-12-07T02:18:04;2.70;99.90
9151;DHT22;4610;50.006;7.490;2022-12-07T02:20:34;2.80;99.90
9151;DHT22;4610;50.006;7.490;2022-12-07T02:26:43;2.80;99.90
9151;DHT22;4610;50.006;7.490;2022-12-07T02:29:17;2.70;99.90
9151;DHT22;4610;50.006;7.490;2022-12-07T02:31:53;2.70;99.90
9151;DHT22;4610;50.006;7.490;2022-12-07T02:34:28;2.70;99.90
9151;DHT22;4610;50.006;7.490;2022-12-07T02:37:02;2.80;99.90
9151;DHT22;4610;50.006;7.490;2022-12-07T02:39:37;2.60;99.90
9151;DHT22;4610;50.006;7.490;2022-12-07T02:42:12;2.70;99.90
9151;DHT22;4610;50.006;7.490;2022-12-07T02:44:42;2.70;99.90
9151;DHT22;4610;50.006;7.490;2022-12-07T02:47:13;2.80;99.90
9151;DHT22;4610;50.006;7.490;2022-12-07T02:49:41;2.80;99.90
9151;DHT22;4610;50.006;7.490;2022-12-07T02:52:08;2.80;99.90
9151;DHT22;4610;50.006;7.490;2022-12-07T02:54:35;2.80;99.90
9151;DHT22;4610;50.006;7.490;2022-12-07T02:57:07;2.90;99.90
9151;DHT22;4610;50.006;7.490;2022-12-07T02:59:46;2.90;99.90
9151;DHT22;4610;50.006;7.490;2022-12-07T03:02:22;2.90;99.90
9151;DHT22;4610;50.006;7.490;2022-12-07T03:05:05;2.90;99.90
9151;DHT22;4610;50.006;7.490;2022-12-07T03:07:39;2.90;99.90
9151;DHT22;4610;50.006;7.490;2022-12-07T03:10:16;2.90;99.90
9151;DHT22;4610;50.006;7.490;2022-12-07T03:12:48;2.90;99.90
9151;DHT22;4610;50.006;7.490;2022-12-07T03:15:27;2.80;99.90
9151;DHT22;4610;50.006;7.490;2022-12-07T03:17:57;2.80;99.90
9151;DHT22;4610;50.006;7.490;2022-12-07T03:20:26;2.80;99.90
9151;DHT22;4610;50.006;7.490;2022-12-07T03:22:54;2.80;99.90
9151;DHT22;4610;50.006;7.490;2022-12-07T03:25:23;2.80;99.90
9151;DHT22;4610;50.006;7.490;2022-12-07T03:27:54;2.80;99.90
9151;DHT22;4610;50.006;7.490;2022-12-07T03:30:26;2.80;99.90
9151;DHT22;4610;50.006;7.490;2022-12-07T03:32:59;2.80;99.90
9151;DHT22;4610;50.006;7.490;2022-12-07T03:35:30;2.90;99.90
9151;DHT22;4610;50.006;7.490;2022-12-07T03:38:02;2.90;99.90
9151;DHT22;4610;50.006;7.490;2022-12-07T03:40:35;2.90;99.90
9151;DHT22;4610;50.006;7.490;2022-12-07T03:43:04;2.90;99.90
9151;DHT22;4610;50.006;7.490;2022-12-07T03:45:38;2.90;99.90
9151;DHT22;4610;50.006;7.490;2022-12-07T03:48:08;2.80;99.90
9151;DHT22;4610;50.006;7.490;2022-12-07T03:50:43;2.80;99.90
9151;DHT22;4610;50.006;7.490;2022-12-07T03:53:14;2.80;99.90
9151;DHT22;4610;50.006;7.490;2022-12-07T03:55:44;2.70;99.90
9151;DHT22;4610;50.006;7.490;2022-12-07T03:58:14;2.70;99.90
9151;DHT22;4610;50.006;7.490;2022-12-07T04:00:44;2.80;99.90
9151;DHT22;4610;50.006;7.490;2022-12-07T04:03:11;2.90;99.90
9151;DHT22;4610;50.006;7.490;2022-12-07T04:05:39;2.90;99.90
9151;DHT22;4610;50.006;7.490;2022-12-07T04:08:06;3.00;99.90
9151;DHT22;4610;50.006;7.490;2022-12-07T04:10:33;3.00;99.90
9151;DHT22;4610;50.006;7.490;2022-12-07T04:13:00;2.90;99.90
9151;DHT22;4610;50.006;7.490;2022-12-07T04:15:27;2.90;99.90
9151;DHT22;4610;50.006;7.490;2022-12-07T04:17:55;2.80;99.90
9151;DHT22;4610;50.006;7.490;2022-12-07T04:20:22;2.80;99.90
9151;DHT22;4610;50.006;7.490;2022-12-07T04:22:49;2.80;99.90
9151;DHT22;4610;50.006;7.490;2022-12-07T04:25:16;2.80;99.90
9151;DHT22;4610;50.006;7.490;2022-12-07T04:27:43;2.90;99.90
9151;DHT22;4610;50.006;7.490;2022-12-07T04:30:10;3.00;99.90
9151;DHT22;4610;50.006;7.490;2022-12-07T04:32:37;3.00;99.90
9151;DHT22;4610;50.006;7.490;2022-12-07T04:35:06;3.00;99.90
9151;DHT22;4610;50.006;7.490;2022-12-07T04:37:33;3.00;99.90
9151;DHT22;4610;50.006;7.490;2022-12-07T04:40:00;3.00;99.90
9151;DHT22;4610;50.006;7.490;2022-12-07T04:42:27;3.00;99.90
9151;DHT22;4610;50.006;7.490;2022-12-07T04:44:53;2.30;99.90
9151;DHT22;4610;50.006;7.490;2022-12-07T04:47:20;3.00;99.90
9151;DHT22;4610;50.006;7.490;2022-12-07T04:49:47;3.10;99.90
9151;DHT22;4610;50.006;7.490;2022-12-07T04:52:15;3.10;99.90
9151;DHT22;4610;50.006;7.490;2022-12-07T04:54:42;3.00;99.90
9151;DHT22;4610;50.006;7.490;2022-12-07T04:57:09;3.00;99.90
9151;DHT22;4610;50.006;7.490;2022-12-07T04:59:35;3.00;99.90
9151;DHT22;4610;50.006;7.490;2022-12-07T05:02:02;2.90;99.90
9151;DHT22;4610;50.006;7.490;2022-12-07T05:04:29;2.90;99.90
9151;DHT22;4610;50.006;7.490;2022-12-07T05:06:56;0.00;99.90
9151;DHT22;4610;50.006;7.490;2022-12-07T05:09:24;3.00;99.90
9151;DHT22;4610;50.006;7.490;2022-12-07T05:11:51;3.10;99.90
9151;DHT22;4610;50.006;7.490;2022-12-07T05:14:20;3.10;99.90
9151;DHT22;4610;50.006;7.490;2022-12-07T05:16:49;2.80;99.90
9151;DHT22;4610;50.006;7.490;2022-12-07T05:19:16;3.00;99.90
9151;DHT22;4610;50.006;7.490;2022-12-07T05:21:44;3.00;99.90
9151;DHT22;4610;50.006;7.490;2022-12-07T05:24:12;2.90;99.90
9151;DHT22;4610;50.006;7.490;2022-12-07T05:26:42;3.00;99.90
9151;DHT22;4610;50.006;7.490;2022-12-07T05:29:11;2.90;99.90
9151;DHT22;4610;50.006;7.490;2022-12-07T05:31:39;3.00;99.90
9151;DHT22;4610;50.006;7.490;2022-12-07T05:34:06;3.10;99.90
9151;DHT22;4610;50.006;7.490;2022-12-07T05:36:33;3.10;99.90
9151;DHT22;4610;50.006;7.490;2022-12-07T05:39:00;3.10;99.90
9151;DHT22;4610;50.006;7.490;2022-12-07T05:41:27;3.10;99.90
9151;DHT22;4610;50.006;7.490;2022-12-07T05:44:12;3.20;99.90
9151;DHT22;4610;50.006;7.490;2022-12-07T05:49:06;3.10;99.90
9151;DHT22;4610;50.006;7.490;2022-12-07T05:51:33;3.00;99.90
9151;DHT22;4610;50.006;7.490;2022-12-07T05:54:00;3.00;99.90
9151;DHT22;4610;50.006;7.490;2022-12-07T05:56:27;3.00;99.90
9151;DHT22;4610;50.006;7.490;2022-12-07T05:58:54;3.00;99.90
9151;DHT22;4610;50.006;7.490;2022-12-07T06:01:39;3.10;99.90
9151;DHT22;4610;50.006;7.490;2022-12-07T06:04:06;3.20;99.90
9151;DHT22;4610;50.006;7.490;2022-12-07T06:06:33;3.20;99.90
9151;DHT22;4610;50.006;7.490;2022-12-07T06:09:00;3.20;99.90
9151;DHT22;4610;50.006;7.490;2022-12-07T06:11:27;3.20;99.90
9151;DHT22;4610;50.006;7.490;2022-12-07T06:14:12;3.20;99.90
9151;DHT22;4610;50.006;7.490;2022-12-07T06:19:07;3.20;99.90
9151;DHT22;4610;50.006;7.490;2022-12-07T06:21:34;3.30;99.90
9151;DHT22;4610;50.006;7.490;2022-12-07T06:24:00;3.20;99.90
9151;DHT22;4610;50.006;7.490;2022-12-07T06:26:27;3.30;99.90
9151;DHT22;4610;50.006;7.490;2022-12-07T06:28:54;3.30;99.90
9151;DHT22;4610;50.006;7.490;2022-12-07T06:31:21;3.30;99.90
9151;DHT22;4610;50.006;7.490;2022-12-07T06:33:49;3.30;99.90
9151;DHT22;4610;50.006;7.490;2022-12-07T06:36:16;3.30;99.90
9151;DHT22;4610;50.006;7.490;2022-12-07T06:38:43;3.30;99.90
9151;DHT22;4610;50.006;7.490;2022-12-07T06:41:10;3.30;99.90
9151;DHT22;4610;50.006;7.490;2022-12-07T06:43:37;3.30;99.90
9151;DHT22;4610;50.006;7.490;2022-12-07T06:46:04;3.20;99.90
9151;DHT22;4610;50.006;7.490;2022-12-07T06:48:31;3.20;99.90
9151;DHT22;4610;50.006;7.490;2022-12-07T06:50:59;3.10;99.90
9151;DHT22;4610;50.006;7.490;2022-12-07T06:53:26;3.20;99.90
9151;DHT22;4610;50.006;7.490;2022-12-07T06:55:53;3.60;99.90
9151;DHT22;4610;50.006;7.490;2022-12-07T06:58:19;3.50;99.90
9151;DHT22;4610;50.006;7.490;2022-12-07T07:00:47;3.50;99.90
9151;DHT22;4610;50.006;7.490;2022-12-07T07:03:14;3.40;99.90
9151;DHT22;4610;50.006;7.490;2022-12-07T07:05:42;3.40;99.90
9151;DHT22;4610;50.006;7.490;2022-12-07T07:08:11;3.40;99.90
9151;DHT22;4610;50.006;7.490;2022-12-07T07:10:38;3.30;99.90
9151;DHT22;4610;50.006;7.490;2022-12-07T07:13:05;3.30;99.90
9151;DHT22;4610;50.006;7.490;2022-12-07T07:15:32;3.30;99.90
9151;DHT22;4610;50.006;7.490;2022-12-07T07:17:59;3.20;99.90
9151;DHT22;4610;50.006;7.490;2022-12-07T07:20:26;3.10;99.90
9151;DHT22;4610;50.006;7.490;2022-12-07T07:22:54;3.00;99.90
9151;DHT22;4610;50.006;7.490;2022-12-07T07:25:22;2.80;99.90
9151;DHT22;4610;50.006;7.490;2022-12-07T07:27:49;2.70;99.90
9151;DHT22;4610;50.006;7.490;2022-12-07T07:30:16;2.60;99.90
9151;DHT22;4610;50.006;7.490;2022-12-07T07:32:43;2.50;99.90
9151;DHT22;4610;50.006;7.490;2022-12-07T07:35:10;2.40;99.90
9151;DHT22;4610;50.006;7.490;2022-12-07T07:37:36;2.40;99.90
9151;DHT22;4610;50.006;7.490;2022-12-07T07:40:04;2.30;99.90
9151;DHT22;4610;50.006;7.490;2022-12-07T07:42:33;2.40;99.90
9151;DHT22;4610;50.006;7.490;2022-12-07T07:45:00;2.50;99.90
9151;DHT22;4610;50.006;7.490;2022-12-07T07:47:26;2.50;99.90
9151;DHT22;4610;50.006;7.490;2022-12-07T07:49:54;2.50;99.90
9151;DHT22;4610;50.006;7.490;2022-12-07T07:52:21;2.60;99.90
9151;DHT22;4610;50.006;7.490;2022-12-07T07:54:48;2.60;99.90
9151;DHT22;4610;50.006;7.490;2022-12-07T07:57:16;2.70;99.90
9151;DHT22;4610;50.006;7.490;2022-12-07T07:59:44;2.80;99.90
9151;DHT22;4610;50.006;7.490;2022-12-07T08:02:14;2.80;99.90
9151;DHT22;4610;50.006;7.490;2022-12-07T08:04:41;2.80;99.90
9151;DHT22;4610;50.006;7.490;2022-12-07T08:07:08;2.90;99.90
9151;DHT22;4610;50.006;7.490;2022-12-07T08:09:35;2.80;99.90
9151;DHT22;4610;50.006;7.490;2022-12-07T08:12:02;2.80;99.90
9151;DHT22;4610;50.006;7.490;2022-12-07T08:14:28;2.90;99.90
9151;DHT22;4610;50.006;7.490;2022-12-07T08:16:57;2.80;99.90
9151;DHT22;4610;50.006;7.490;2022-12-07T08:19:24;2.80;99.90
9151;DHT22;4610;50.006;7.490;2022-12-07T08:21:50;2.80;99.90
9151;DHT22;4610;50.006;7.490;2022-12-07T08:24:18;2.80;99.90
9151;DHT22;4610;50.006;7.490;2022-12-07T08:26:45;2.70;99.90
9151;DHT22;4610;50.006;7.490;2022-12-07T08:29:11;2.80;99.90
9151;DHT22;4610;50.006;7.490;2022-12-07T08:31:39;2.90;99.90
9151;DHT22;4610;50.006;7.490;2022-12-07T08:34:10;2.90;99.90
9151;DHT22;4610;50.006;7.490;2022-12-07T08:36:36;2.90;99.90
9151;DHT22;4610;50.006;7.490;2022-12-07T08:39:03;3.00;99.90
9151;DHT22;4610;50.006;7.490;2022-12-07T08:41:30;3.10;99.90
9151;DHT22;4610;50.006;7.490;2022-12-07T08:43:57;3.20;99.90
9151;DHT22;4610;50.006;7.490;2022-12-07T08:46:26;3.30;99.90
9151;DHT22;4610;50.006;7.490;2022-12-07T08:48:58;3.40;99.90
9151;DHT22;4610;50.006;7.490;2022-12-07T08:51:28;3.40;99.90
9151;DHT22;4610;50.006;7.490;2022-12-07T08:53:55;3.50;99.90
9151;DHT22;4610;50.006;7.490;2022-12-07T08:56:22;3.60;99.90
9151;DHT22;4610;50.006;7.490;2022-12-07T08:58:51;3.60;99.90
9151;DHT22;4610;50.006;7.490;2022-12-07T09:01:19;3.60;99.90
9151;DHT22;4610;50.006;7.490;2022-12-07T09:03:45;3.60;99.90
9151;DHT22;4610;50.006;7.490;2022-12-07T09:06:12;3.80;99.90
9151;DHT22;4610;50.006;7.490;2022-12-07T09:08:42;3.90;99.90
9151;DHT22;4610;50.006;7.490;2022-12-07T09:11:10;4.10;99.90
9151;DHT22;4610;50.006;7.490;2022-12-07T09:13:36;4.30;99.90
9151;DHT22;4610;50.006;7.490;2022-12-07T09:16:04;4.50;99.90
9151;DHT22;4610;50.006;7.490;2022-12-07T09:18:31;4.50;99.90
9151;DHT22;4610;50.006;7.490;2022-12-07T09:20:58;4.60;99.90
9151;DHT22;4610;50.006;7.490;2022-12-07T09:23:25;4.50;99.90
9151;DHT22;4610;50.006;7.490;2022-12-07T09:25:53;4.50;99.90
9151;DHT22;4610;50.006;7.490;2022-12-07T09:28:20;4.50;99.90
9151;DHT22;4610;50.006;7.490;2022-12-07T09:30:47;4.40;99.90
9151;DHT22;4610;50.006;7.490;2022-12-07T09:33:14;4.10;99.90
9151;DHT22;4610;50.006;7.490;2022-12-07T09:35:44;4.30;99.90
9151;DHT22;4610;50.006;7.490;2022-12-07T09:38:11;4.20;99.90
9151;DHT22;4610;50.006;7.490;2022-12-07T09:40:38;4.10;99.90
9151;DHT22;4610;50.006;7.490;2022-12-07T09:43:12;4.80;99.90
9151;DHT22;4610;50.006;7.490;2022-12-07T09:45:39;4.60;99.90
9151;DHT22;4610;50.006;7.490;2022-12-07T09:48:14;4.40;99.90
9151;DHT22;4610;50.006;7.490;2022-12-07T09:50:42;4.30;99.90
9151;DHT22;4610;50.006;7.490;2022-12-07T09:53:14;4.30;99.90
9151;DHT22;4610;50.006;7.490;2022-12-07T09:55:43;4.30;99.90
9151;DHT22;4610;50.006;7.490;2022-12-07T09:58:19;4.50;99.90
9151;DHT22;4610;50.006;7.490;2022-12-07T10:00:46;4.70;99.90
9151;DHT22;4610;50.006;7.490;2022-12-07T10:03:14;5.10;99.90
9151;DHT22;4610;50.006;7.490;2022-12-07T10:05:43;5.20;99.90
9151;DHT22;4610;50.006;7.490;2022-12-07T10:08:12;5.30;99.90
9151;DHT22;4610;50.006;7.490;2022-12-07T10:10:39;5.50;99.90
9151;DHT22;4610;50.006;7.490;2022-12-07T10:13:07;5.60;99.90
9151;DHT22;4610;50.006;7.490;2022-12-07T10:15:47;5.50;99.90
9151;DHT22;4610;50.006;7.490;2022-12-07T10:18:33;5.30;99.90
9151;DHT22;4610;50.006;7.490;2022-12-07T10:21:12;5.80;99.90
9151;DHT22;4610;50.006;7.490;2022-12-07T10:23:41;5.60;99.90
9151;DHT22;4610;50.006;7.490;2022-12-07T10:26:27;5.50;99.90
9151;DHT22;4610;50.006;7.490;2022-12-07T10:28:54;5.40;99.90
9151;DHT22;4610;50.006;7.490;2022-12-07T10:31:23;5.40;99.90
9151;DHT22;4610;50.006;7.490;2022-12-07T10:33:51;5.40;99.90
9151;DHT22;4610;50.006;7.490;2022-12-07T10:36:22;5.40;99.90
9151;DHT22;4610;50.006;7.490;2022-12-07T10:38:52;5.30;99.90
9151;DHT22;4610;50.006;7.490;2022-12-07T10:41:19;5.20;99.90
9151;DHT22;4610;50.006;7.490;2022-12-07T10:43:48;5.20;99.90
9151;DHT22;4610;50.006;7.490;2022-12-07T10:46:36;5.10;99.90
9151;DHT22;4610;50.006;7.490;2022-12-07T10:49:22;5.10;99.90
9151;DHT22;4610;50.006;7.490;2022-12-07T10:51:58;5.20;99.90
9151;DHT22;4610;50.006;7.490;2022-12-07T10:54:30;5.10;99.90
9151;DHT22;4610;50.006;7.490;2022-12-07T10:57:19;5.10;99.90
9151;DHT22;4610;50.006;7.490;2022-12-07T10:59:59;5.10;99.90
9151;DHT22;4610;50.006;7.490;2022-12-07T11:05:27;5.00;99.90
9151;DHT22;4610;50.006;7.490;2022-12-07T11:08:03;5.00;99.90
9151;DHT22;4610;50.006;7.490;2022-12-07T11:10:38;5.10;99.90
9151;DHT22;4610;50.006;7.490;2022-12-07T11:13:20;5.30;99.90
9151;DHT22;4610;50.006;7.490;2022-12-07T11:15:59;5.40;99.90
9151;DHT22;4610;50.006;7.490;2022-12-07T11:18:38;5.50;99.90
9151;DHT22;4610;50.006;7.490;2022-12-07T11:21:12;5.50;99.90
9151;DHT22;4610;50.006;7.490;2022-12-07T11:23:48;5.30;99.90
9151;DHT22;4610;50.006;7.490;2022-12-07T11:26:23;5.30;99.90
9151;DHT22;4610;50.006;7.490;2022-12-07T11:29:14;5.20;99.90
9151;DHT22;4610;50.006;7.490;2022-12-07T11:31:56;5.30;99.90
9151;DHT22;4610;50.006;7.490;2022-12-07T11:34:33;5.60;99.90
9151;DHT22;4610;50.006;7.490;2022-12-07T11:37:03;5.80;99.90
9151;DHT22;4610;50.006;7.490;2022-12-07T11:39:41;5.80;99.90
9151;DHT22;4610;50.006;7.490;2022-12-07T11:42:14;6.00;99.90
9151;DHT22;4610;50.006;7.490;2022-12-07T11:44:49;5.90;99.90
9151;DHT22;4610;50.006;7.490;2022-12-07T11:47:22;6.00;99.90
9151;DHT22;4610;50.006;7.490;2022-12-07T11:49:54;6.20;99.90
9151;DHT22;4610;50.006;7.490;2022-12-07T11:52:27;6.20;99.90
9151;DHT22;4610;50.006;7.490;2022-12-07T11:54:58;6.30;99.90
9151;DHT22;4610;50.006;7.490;2022-12-07T11:57:32;6.30;99.90
9151;DHT22;4610;50.006;7.490;2022-12-07T12:00:03;6.30;99.90
9151;DHT22;4610;50.006;7.490;2022-12-07T12:02:36;6.30;99.90
9151;DHT22;4610;50.006;7.490;2022-12-07T12:05:14;6.30;99.90
9151;DHT22;4610;50.006;7.490;2022-12-07T12:07:43;6.30;99.90
9151;DHT22;4610;50.006;7.490;2022-12-07T12:10:18;6.30;99.90
9151;DHT22;4610;50.006;7.490;2022-12-07T12:13:03;6.30;99.90
9151;DHT22;4610;50.006;7.490;2022-12-07T12:15:57;6.40;99.90
9151;DHT22;4610;50.006;7.490;2022-12-07T12:21:27;6.50;99.90
9151;DHT22;4610;50.006;7.490;2022-12-07T12:23:57;6.60;99.90
9151;DHT22;4610;50.006;7.490;2022-12-07T12:26:27;6.60;99.90
9151;DHT22;4610;50.006;7.490;2022-12-07T12:28:56;6.40;99.90
9151;DHT22;4610;50.006;7.490;2022-12-07T12:31:46;6.40;99.90
9151;DHT22;4610;50.006;7.490;2022-12-07T12:34:33;6.40;99.90
9151;DHT22;4610;50.006;7.490;2022-12-07T12:37:44;6.40;99.90
9151;DHT22;4610;50.006;7.490;2022-12-07T12:40:40;6.30;99.90
9151;DHT22;4610;50.006;7.490;2022-12-07T12:43:41;6.20;99.90
9151;DHT22;4610;50.006;7.490;2022-12-07T12:49:54;5.70;99.90
9151;DHT22;4610;50.006;7.490;2022-12-07T12:52:57;5.50;99.90
9151;DHT22;4610;50.006;7.490;2022-12-07T12:55:49;5.40;99.90
9151;DHT22;4610;50.006;7.490;2022-12-07T13:01:41;5.40;99.90
9151;DHT22;4610;50.006;7.490;2022-12-07T13:07:10;5.40;99.90
9151;DHT22;4610;50.006;7.490;2022-12-07T13:09:43;5.80;99.90
9151;DHT22;4610;50.006;7.490;2022-12-07T13:12:13;5.80;99.90
9151;DHT22;4610;50.006;7.490;2022-12-07T13:17:57;5.50;99.90
9151;DHT22;4610;50.006;7.490;2022-12-07T13:20:51;5.40;99.90
9151;DHT22;4610;50.006;7.490;2022-12-07T13:26:16;5.30;99.90
9151;DHT22;4610;50.006;7.490;2022-12-07T13:28:46;5.20;99.90
9151;DHT22;4610;50.006;7.490;2022-12-07T13:31:25;5.30;99.90
9151;DHT22;4610;50.006;7.490;2022-12-07T13:33:57;5.30;99.90
9151;DHT22;4610;50.006;7.490;2022-12-07T13:36:25;5.30;99.90
9151;DHT22;4610;50.006;7.490;2022-12-07T13:38:55;5.30;99.90
9151;DHT22;4610;50.006;7.490;2022-12-07T13:41:24;5.30;99.90
9151;DHT22;4610;50.006;7.490;2022-12-07T13:43:54;5.20;99.90
9151;DHT22;4610;50.006;7.490;2022-12-07T13:46:30;5.30;99.90
9151;DHT22;4610;50.006;7.490;2022-12-07T13:48:58;6.10;99.90
9151;DHT22;4610;50.006;7.490;2022-12-07T13:51:26;6.10;99.90
9151;DHT22;4610;50.006;7.490;2022-12-07T13:53:56;6.10;99.90
9151;DHT22;4610;50.006;7.490;2022-12-07T13:56:31;6.10;99.90
9151;DHT22;4610;50.006;7.490;2022-12-07T13:58:59;6.00;99.90
9151;DHT22;4610;50.006;7.490;2022-12-07T14:01:26;5.80;99.90
9151;DHT22;4610;50.006;7.490;2022-12-07T14:03:54;5.60;99.90
9151;DHT22;4610;50.006;7.490;2022-12-07T14:06:24;5.50;99.90
9151;DHT22;4610;50.006;7.490;2022-12-07T14:09:08;5.40;99.90
9151;DHT22;4610;50.006;7.490;2022-12-07T14:11:37;5.30;99.90
9151;DHT22;4610;50.006;7.490;2022-12-07T14:14:05;5.20;99.90
9151;DHT22;4610;50.006;7.490;2022-12-07T14:16:33;5.30;99.90
9151;DHT22;4610;50.006;7.490;2022-12-07T14:19:03;5.30;99.90
9151;DHT22;4610;50.006;7.490;2022-12-07T14:21:32;5.30;99.90
9151;DHT22;4610;50.006;7.490;2022-12-07T14:24:09;5.30;99.90
9151;DHT22;4610;50.006;7.490;2022-12-07T14:26:38;5.20;99.90
9151;DHT22;4610;50.006;7.490;2022-12-07T14:29:22;3.90;99.90
9151;DHT22;4610;50.006;7.490;2022-12-07T14:31:56;5.20;99.90
9151;DHT22;4610;50.006;7.490;2022-12-07T14:34:24;5.20;99.90
9151;DHT22;4610;50.006;7.490;2022-12-07T14:36:51;5.20;99.90
9151;DHT22;4610;50.006;7.490;2022-12-07T14:39:18;5.20;99.90
9151;DHT22;4610;50.006;7.490;2022-12-07T14:41:47;5.10;99.90
9151;DHT22;4610;50.006;7.490;2022-12-07T14:44:18;5.10;99.90
9151;DHT22;4610;50.006;7.490;2022-12-07T14:46:46;5.10;99.90
9151;DHT22;4610;50.006;7.490;2022-12-07T14:49:13;5.00;99.90
9151;DHT22;4610;50.006;7.490;2022-12-07T14:51:40;5.00;99.90
9151;DHT22;4610;50.006;7.490;2022-12-07T14:54:16;4.80;99.90
9151;DHT22;4610;50.006;7.490;2022-12-07T14:56:43;4.60;99.90
9151;DHT22;4610;50.006;7.490;2022-12-07T14:59:12;4.70;99.90
9151;DHT22;4610;50.006;7.490;2022-12-07T15:01:39;4.70;99.90
9151;DHT22;4610;50.006;7.490;2022-12-07T15:04:06;4.80;99.90
9151;DHT22;4610;50.006;7.490;2022-12-07T15:06:33;4.80;99.90
9151;DHT22;4610;50.006;7.490;2022-12-07T15:09:03;4.80;99.90
9151;DHT22;4610;50.006;7.490;2022-12-07T15:11:30;4.80;99.90
9151;DHT22;4610;50.006;7.490;2022-12-07T15:13:57;4.70;99.90
9151;DHT22;4610;50.006;7.490;2022-12-07T15:16:40;4.70;99.90
9151;DHT22;4610;50.006;7.490;2022-12-07T15:19:11;6.10;99.90
9151;DHT22;4610;50.006;7.490;2022-12-07T15:21:40;4.60;99.90
9151;DHT22;4610;50.006;7.490;2022-12-07T15:24:08;4.60;99.90
9151;DHT22;4610;50.006;7.490;2022-12-07T15:26:35;4.50;99.90
9151;DHT22;4610;50.006;7.490;2022-12-07T15:29:02;4.40;99.90
9151;DHT22;4610;50.006;7.490;2022-12-07T15:31:29;4.20;99.90
9151;DHT22;4610;50.006;7.490;2022-12-07T15:33:57;4.10;99.90
9151;DHT22;4610;50.006;7.490;2022-12-07T15:36:27;4.00;99.90
9151;DHT22;4610;50.006;7.490;2022-12-07T15:38:56;4.00;99.90
9151;DHT22;4610;50.006;7.490;2022-12-07T15:41:24;4.00;99.90
9151;DHT22;4610;50.006;7.490;2022-12-07T15:43:51;4.10;99.90
9151;DHT22;4610;50.006;7.490;2022-12-07T15:46:38;5.30;99.90
9151;DHT22;4610;50.006;7.490;2022-12-07T15:49:13;4.70;99.90
9151;DHT22;4610;50.006;7.490;2022-12-07T15:51:40;4.60;99.90
9151;DHT22;4610;50.006;7.490;2022-12-07T15:54:11;4.60;99.90
9151;DHT22;4610;50.006;7.490;2022-12-07T15:56:39;4.50;99.90
9151;DHT22;4610;50.006;7.490;2022-12-07T15:59:05;4.40;99.90
9151;DHT22;4610;50.006;7.490;2022-12-07T16:01:32;4.30;99.90
9151;DHT22;4610;50.006;7.490;2022-12-07T16:03:59;4.20;99.90
9151;DHT22;4610;50.006;7.490;2022-12-07T16:06:27;4.10;99.90
9151;DHT22;4610;50.006;7.490;2022-12-07T16:08:54;3.90;99.90
9151;DHT22;4610;50.006;7.490;2022-12-07T16:11:21;3.90;99.90
9151;DHT22;4610;50.006;7.490;2022-12-07T16:13:48;3.90;99.90
9151;DHT22;4610;50.006;7.490;2022-12-07T16:16:17;3.90;99.90
9151;DHT22;4610;50.006;7.490;2022-12-07T16:18:46;4.00;99.90
9151;DHT22;4610;50.006;7.490;2022-12-07T16:21:13;4.00;99.90
9151;DHT22;4610;50.006;7.490;2022-12-07T16:23:42;4.00;99.90
9151;DHT22;4610;50.006;7.490;2022-12-07T16:26:11;3.90;99.90
9151;DHT22;4610;50.006;7.490;2022-12-07T16:28:39;3.90;99.90
9151;DHT22;4610;50.006;7.490;2022-12-07T16:31:08;3.80;99.90
9151;DHT22;4610;50.006;7.490;2022-12-07T16:33:36;3.80;99.90
9151;DHT22;4610;50.006;7.490;2022-12-07T16:36:05;3.80;99.90
9151;DHT22;4610;50.006;7.490;2022-12-07T16:38:32;3.70;99.90
9151;DHT22;4610;50.006;7.490;2022-12-07T16:41:00;3.70;99.90
9151;DHT22;4610;50.006;7.490;2022-12-07T16:43:27;3.70;99.90
9151;DHT22;4610;50.006;7.490;2022-12-07T16:45:57;3.80;99.90
9151;DHT22;4610;50.006;7.490;2022-12-07T16:48:24;3.80;99.90
9151;DHT22;4610;50.006;7.490;2022-12-07T16:50:51;3.90;99.90
9151;DHT22;4610;50.006;7.490;2022-12-07T16:53:20;3.90;99.90
9151;DHT22;4610;50.006;7.490;2022-12-07T16:55:47;4.80;99.90
9151;DHT22;4610;50.006;7.490;2022-12-07T16:58:16;3.90;99.90
9151;DHT22;4610;50.006;7.490;2022-12-07T17:00:44;3.90;99.90
9151;DHT22;4610;50.006;7.490;2022-12-07T17:03:11;5.00;99.90
9151;DHT22;4610;50.006;7.490;2022-12-07T17:05:39;4.80;99.90
9151;DHT22;4610;50.006;7.490;2022-12-07T17:08:07;4.70;99.90